sensor_id;sensor_type;location;lat;lon;timestamp;P1;durP1;ratioP1;P2;durP2;ratioP2
13832;SDS011;6987;19.472;-99.276;2023-03-17T00:02:11;2.78;;;2.67;;
13832;SDS011;6987;19.472;-99.276;2023-03-17T00:04:41;3.85;;;2.53;;
13832;SDS011;6987;19.472;-99.276;2023-03-17T00:07:10;6.15;;;2.80;;
13832;SDS011;6987;19.472;-99.276;2023-03-17T00:09:42;2.65;;;2.50;;
13832;SDS011;6987;19.472;-99.276;2023-03-17T00:12:13;2.47;;;2.28;;
13832;SDS011;6987;19.472;-99.276;2023-03-17T00:14:44;2.70;;;2.60;;
13832;SDS011;6987;19.472;-99.276;2023-03-17T00:17:13;2.42;;;2.33;;
13832;SDS011;6987;19.472;-99.276;2023-03-17T00:19:42;17.38;;;2.92;;
13832;SDS011;6987;19.472;-99.276;2023-03-17T00:22:13;2.45;;;2.35;;
13832;SDS011;6987;19.472;-99.276;2023-03-17T00:24:43;7.18;;;2.72;;
13832;SDS011;6987;19.472;-99.276;2023-03-17T00:27:14;3.47;;;2.88;;
13832;SDS011;6987;19.472;-99.276;2023-03-17T00:29:43;2.33;;;2.22;;
13832;SDS011;6987;19.472;-99.276;2023-03-17T00:32:14;2.95;;;2.67;;
13832;SDS011;6987;19.472;-99.276;2023-03-17T00:34:44;2.97;;;2.78;;
13832;SDS011;6987;19.472;-99.276;2023-03-17T00:37:13;2.65;;;2.45;;
13832;SDS011;6987;19.472;-99.276;2023-03-17T00:39:42;4.40;;;2.88;;
13832;SDS011;6987;19.472;-99.276;2023-03-17T00:42:12;3.03;;;2.55;;
13832;SDS011;6987;19.472;-99.276;2023-03-17T00:44:42;3.03;;;2.83;;
13832;SDS011;6987;19.472;-99.276;2023-03-17T00:47:12;2.45;;;2.30;;
13832;SDS011;6987;19.472;-99.276;2023-03-17T00:49:41;2.97;;;2.78;;
13832;SDS011;6987;19.472;-99.276;2023-03-17T00:52:09;5.55;;;2.85;;
13832;SDS011;6987;19.472;-99.276;2023-03-17T00:54:39;3.22;;;3.03;;
13832;SDS011;6987;19.472;-99.276;2023-03-17T00:57:07;2.92;;;2.83;;
13832;SDS011;6987;19.472;-99.276;2023-03-17T00:59:37;7.05;;;2.80;;
13832;SDS011;6987;19.472;-99.276;2023-03-17T01:02:10;3.75;;;2.55;;
13832;SDS011;6987;19.472;-99.276;2023-03-17T01:04:40;2.60;;;2.40;;
13832;SDS011;6987;19.472;-99.276;2023-03-17T01:07:10;4.78;;;2.83;;
13832;SDS011;6987;19.472;-99.276;2023-03-17T01:09:40;5.38;;;2.83;;
13832;SDS011;6987;19.472;-99.276;2023-03-17T01:12:09;3.78;;;3.00;;
13832;SDS011;6987;19.472;-99.276;2023-03-17T01:14:40;3.63;;;3.33;;
13832;SDS011;6987;19.472;-99.276;2023-03-17T01:17:14;3.83;;;3.28;;
13832;SDS011;6987;19.472;-99.276;2023-03-17T01:19:44;3.42;;;2.63;;
13832;SDS011;6987;19.472;-99.276;2023-03-17T01:22:13;3.15;;;2.95;;
13832;SDS011;6987;19.472;-99.276;2023-03-17T01:24:43;2.78;;;2.58;;
13832;SDS011;6987;19.472;-99.276;2023-03-17T01:27:12;5.18;;;3.58;;
13832;SDS011;6987;19.472;-99.276;2023-03-17T01:29:42;3.25;;;3.05;;
13832;SDS011;6987;19.472;-99.276;2023-03-17T01:32:11;3.70;;;3.47;;
13832;SDS011;6987;19.472;-99.276;2023-03-17T01:34:42;4.97;;;2.92;;
13832;SDS011;6987;19.472;-99.276;2023-03-17T01:37:11;3.25;;;3.05;;
13832;SDS011;6987;19.472;-99.276;2023-03-17T01:39:40;3.53;;;2.83;;
13832;SDS011;6987;19.472;-99.276;2023-03-17T01:42:09;5.20;;;3.67;;
13832;SDS011;6987;19.472;-99.276;2023-03-17T01:47:22;10.43;;;4.55;;
13832;SDS011;6987;19.472;-99.276;2023-03-17T01:49:53;7.60;;;3.97;;
13832;SDS011;6987;19.472;-99.276;2023-03-17T01:52:23;4.25;;;3.88;;
13832;SDS011;6987;19.472;-99.276;2023-03-17T01:54:53;4.70;;;3.42;;
13832;SDS011;6987;19.472;-99.276;2023-03-17T01:57:24;3.70;;;3.40;;
13832;SDS011;6987;19.472;-99.276;2023-03-17T01:59:54;4.55;;;3.45;;
13832;SDS011;6987;19.472;-99.276;2023-03-17T02:02:26;3.78;;;3.47;;
13832;SDS011;6987;19.472;-99.276;2023-03-17T02:04:58;5.25;;;3.55;;
13832;SDS011;6987;19.472;-99.276;2023-03-17T02:07:28;3.55;;;3.30;;
13832;SDS011;6987;19.472;-99.276;2023-03-17T02:09:57;4.50;;;3.63;;
13832;SDS011;6987;19.472;-99.276;2023-03-17T02:12:27;4.47;;;3.30;;
13832;SDS011;6987;19.472;-99.276;2023-03-17T02:14:56;4.20;;;3.70;;
13832;SDS011;6987;19.472;-99.276;2023-03-17T02:17:26;3.72;;;3.45;;
13832;SDS011;6987;19.472;-99.276;2023-03-17T02:20:08;2.83;;;2.72;;
13832;SDS011;6987;19.472;-99.276;2023-03-17T02:22:41;4.00;;;3.67;;
13832;SDS011;6987;19.472;-99.276;2023-03-17T02:25:11;3.92;;;2.75;;
13832;SDS011;6987;19.472;-99.276;2023-03-17T02:27:41;8.98;;;4.00;;
13832;SDS011;6987;19.472;-99.276;2023-03-17T02:30:12;3.70;;;3.40;;
13832;SDS011;6987;19.472;-99.276;2023-03-17T02:32:42;3.65;;;3.33;;
13832;SDS011;6987;19.472;-99.276;2023-03-17T02:35:11;4.57;;;3.50;;
13832;SDS011;6987;19.472;-99.276;2023-03-17T02:37:42;6.32;;;4.72;;
13832;SDS011;6987;19.472;-99.276;2023-03-17T02:40:11;4.75;;;4.28;;
13832;SDS011;6987;19.472;-99.276;2023-03-17T02:42:41;3.50;;;3.22;;
13832;SDS011;6987;19.472;-99.276;2023-03-17T02:45:10;4.60;;;3.65;;
13832;SDS011;6987;19.472;-99.276;2023-03-17T02:47:40;3.92;;;3.55;;
13832;SDS011;6987;19.472;-99.276;2023-03-17T02:50:10;9.70;;;3.70;;
13832;SDS011;6987;19.472;-99.276;2023-03-17T02:52:46;6.43;;;4.10;;
13832;SDS011;6987;19.472;-99.276;2023-03-17T02:55:15;3.92;;;3.63;;
13832;SDS011;6987;19.472;-99.276;2023-03-17T02:57:45;4.20;;;3.85;;
13832;SDS011;6987;19.472;-99.276;2023-03-17T03:00:14;3.80;;;3.50;;
13832;SDS011;6987;19.472;-99.276;2023-03-17T03:02:44;4.28;;;3.95;;
13832;SDS011;6987;19.472;-99.276;2023-03-17T03:05:13;3.28;;;3.00;;
13832;SDS011;6987;19.472;-99.276;2023-03-17T03:07:42;6.93;;;3.70;;
13832;SDS011;6987;19.472;-99.276;2023-03-17T03:10:13;9.10;;;4.53;;
13832;SDS011;6987;19.472;-99.276;2023-03-17T03:12:43;4.28;;;3.90;;
13832;SDS011;6987;19.472;-99.276;2023-03-17T03:15:12;4.40;;;4.03;;
13832;SDS011;6987;19.472;-99.276;2023-03-17T03:17:41;5.80;;;5.10;;
13832;SDS011;6987;19.472;-99.276;2023-03-17T03:20:10;7.93;;;5.55;;
13832;SDS011;6987;19.472;-99.276;2023-03-17T03:22:40;6.35;;;4.45;;
13832;SDS011;6987;19.472;-99.276;2023-03-17T03:25:09;7.32;;;4.18;;
13832;SDS011;6987;19.472;-99.276;2023-03-17T03:27:40;6.18;;;4.45;;
13832;SDS011;6987;19.472;-99.276;2023-03-17T03:30:10;4.63;;;4.32;;
13832;SDS011;6987;19.472;-99.276;2023-03-17T03:32:39;4.90;;;4.40;;
13832;SDS011;6987;19.472;-99.276;2023-03-17T03:35:08;8.68;;;5.10;;
13832;SDS011;6987;19.472;-99.276;2023-03-17T03:37:37;4.68;;;3.95;;
13832;SDS011;6987;19.472;-99.276;2023-03-17T03:40:07;13.70;;;4.40;;
13832;SDS011;6987;19.472;-99.276;2023-03-17T03:42:36;9.45;;;3.97;;
13832;SDS011;6987;19.472;-99.276;2023-03-17T03:45:07;5.97;;;4.65;;
13832;SDS011;6987;19.472;-99.276;2023-03-17T03:47:36;8.80;;;4.05;;
13832;SDS011;6987;19.472;-99.276;2023-03-17T03:50:06;7.85;;;4.30;;
13832;SDS011;6987;19.472;-99.276;2023-03-17T03:52:35;3.83;;;3.60;;
13832;SDS011;6987;19.472;-99.276;2023-03-17T03:55:05;5.32;;;4.72;;
13832;SDS011;6987;19.472;-99.276;2023-03-17T03:57:34;4.45;;;4.07;;
13832;SDS011;6987;19.472;-99.276;2023-03-17T04:00:03;4.70;;;4.35;;
13832;SDS011;6987;19.472;-99.276;2023-03-17T04:02:35;4.85;;;4.28;;
13832;SDS011;6987;19.472;-99.276;2023-03-17T04:05:04;5.03;;;4.45;;
13832;SDS011;6987;19.472;-99.276;2023-03-17T04:07:34;5.03;;;4.22;;
13832;SDS011;6987;19.472;-99.276;2023-03-17T04:10:04;4.70;;;4.07;;
13832;SDS011;6987;19.472;-99.276;2023-03-17T04:12:33;4.45;;;4.10;;
13832;SDS011;6987;19.472;-99.276;2023-03-17T04:15:02;4.05;;;3.75;;
13832;SDS011;6987;19.472;-99.276;2023-03-17T04:17:31;7.55;;;4.80;;
13832;SDS011;6987;19.472;-99.276;2023-03-17T04:20:02;8.43;;;4.53;;
13832;SDS011;6987;19.472;-99.276;2023-03-17T04:22:32;5.80;;;4.78;;
13832;SDS011;6987;19.472;-99.276;2023-03-17T04:25:01;5.20;;;4.80;;
13832;SDS011;6987;19.472;-99.276;2023-03-17T04:27:30;4.72;;;4.32;;
13832;SDS011;6987;19.472;-99.276;2023-03-17T04:29:59;4.43;;;4.13;;
13832;SDS011;6987;19.472;-99.276;2023-03-17T04:32:29;5.15;;;4.03;;
13832;SDS011;6987;19.472;-99.276;2023-03-17T04:34:58;4.38;;;4.07;;
13832;SDS011;6987;19.472;-99.276;2023-03-17T04:37:29;10.23;;;4.55;;
13832;SDS011;6987;19.472;-99.276;2023-03-17T04:39:59;4.30;;;3.97;;
13832;SDS011;6987;19.472;-99.276;2023-03-17T04:42:27;5.68;;;3.92;;
13832;SDS011;6987;19.472;-99.276;2023-03-17T04:44:56;4.07;;;3.50;;
13832;SDS011;6987;19.472;-99.276;2023-03-17T04:47:26;3.83;;;3.47;;
13832;SDS011;6987;19.472;-99.276;2023-03-17T04:49:55;5.53;;;3.90;;
13832;SDS011;6987;19.472;-99.276;2023-03-17T04:52:24;5.38;;;4.45;;
13832;SDS011;6987;19.472;-99.276;2023-03-17T04:54:54;5.55;;;4.10;;
13832;SDS011;6987;19.472;-99.276;2023-03-17T04:57:24;4.38;;;3.97;;
13832;SDS011;6987;19.472;-99.276;2023-03-17T04:59:53;6.28;;;3.95;;
13832;SDS011;6987;19.472;-99.276;2023-03-17T05:02:22;4.13;;;3.67;;
13832;SDS011;6987;19.472;-99.276;2023-03-17T05:04:54;4.65;;;4.07;;
13832;SDS011;6987;19.472;-99.276;2023-03-17T05:07:23;3.90;;;3.63;;
13832;SDS011;6987;19.472;-99.276;2023-03-17T05:09:55;4.57;;;3.38;;
13832;SDS011;6987;19.472;-99.276;2023-03-17T05:12:24;4.75;;;4.22;;
13832;SDS011;6987;19.472;-99.276;2023-03-17T05:14:53;3.38;;;3.08;;
13832;SDS011;6987;19.472;-99.276;2023-03-17T05:17:22;3.38;;;3.08;;
13832;SDS011;6987;19.472;-99.276;2023-03-17T05:19:52;3.67;;;3.38;;
13832;SDS011;6987;19.472;-99.276;2023-03-17T05:22:21;3.58;;;3.20;;
13832;SDS011;6987;19.472;-99.276;2023-03-17T05:24:50;3.42;;;2.85;;
13832;SDS011;6987;19.472;-99.276;2023-03-17T05:27:21;3.55;;;3.35;;
13832;SDS011;6987;19.472;-99.276;2023-03-17T05:29:50;6.78;;;3.65;;
13832;SDS011;6987;19.472;-99.276;2023-03-17T05:32:19;6.88;;;3.20;;
13832;SDS011;6987;19.472;-99.276;2023-03-17T05:34:48;8.25;;;3.47;;
13832;SDS011;6987;19.472;-99.276;2023-03-17T05:37:17;3.13;;;2.92;;
13832;SDS011;6987;19.472;-99.276;2023-03-17T05:39:47;4.80;;;3.50;;
13832;SDS011;6987;19.472;-99.276;2023-03-17T05:42:17;4.30;;;3.13;;
13832;SDS011;6987;19.472;-99.276;2023-03-17T05:44:48;3.47;;;3.20;;
13832;SDS011;6987;19.472;-99.276;2023-03-17T05:47:18;3.50;;;3.20;;
13832;SDS011;6987;19.472;-99.276;2023-03-17T05:49:47;6.57;;;3.10;;
13832;SDS011;6987;19.472;-99.276;2023-03-17T05:52:16;3.63;;;3.33;;
13832;SDS011;6987;19.472;-99.276;2023-03-17T05:54:45;3.72;;;3.42;;
13832;SDS011;6987;19.472;-99.276;2023-03-17T05:57:14;3.80;;;3.05;;
13832;SDS011;6987;19.472;-99.276;2023-03-17T05:59:44;3.95;;;2.97;;
13832;SDS011;6987;19.472;-99.276;2023-03-17T06:02:14;4.35;;;3.17;;
13832;SDS011;6987;19.472;-99.276;2023-03-17T06:04:43;2.90;;;2.63;;
13832;SDS011;6987;19.472;-99.276;2023-03-17T06:07:13;3.72;;;2.55;;
13832;SDS011;6987;19.472;-99.276;2023-03-17T06:09:42;3.20;;;2.95;;
13832;SDS011;6987;19.472;-99.276;2023-03-17T06:12:11;2.63;;;2.53;;
13832;SDS011;6987;19.472;-99.276;2023-03-17T06:14:40;2.63;;;2.50;;
13832;SDS011;6987;19.472;-99.276;2023-03-17T06:17:09;3.40;;;2.95;;
13832;SDS011;6987;19.472;-99.276;2023-03-17T06:19:41;2.78;;;2.58;;
13832;SDS011;6987;19.472;-99.276;2023-03-17T06:22:10;4.25;;;2.67;;
13832;SDS011;6987;19.472;-99.276;2023-03-17T06:24:39;2.60;;;2.40;;
13832;SDS011;6987;19.472;-99.276;2023-03-17T06:27:09;2.97;;;2.67;;
13832;SDS011;6987;19.472;-99.276;2023-03-17T06:29:39;2.72;;;2.60;;
13832;SDS011;6987;19.472;-99.276;2023-03-17T06:32:08;2.85;;;2.58;;
13832;SDS011;6987;19.472;-99.276;2023-03-17T06:34:40;3.55;;;3.10;;
13832;SDS011;6987;19.472;-99.276;2023-03-17T06:37:09;3.10;;;2.78;;
13832;SDS011;6987;19.472;-99.276;2023-03-17T06:39:38;2.50;;;2.40;;
13832;SDS011;6987;19.472;-99.276;2023-03-17T06:42:08;3.78;;;2.70;;
13832;SDS011;6987;19.472;-99.276;2023-03-17T06:44:37;3.10;;;2.90;;
13832;SDS011;6987;19.472;-99.276;2023-03-17T06:47:06;2.78;;;2.55;;
13832;SDS011;6987;19.472;-99.276;2023-03-17T06:49:35;3.28;;;2.80;;
13832;SDS011;6987;19.472;-99.276;2023-03-17T06:52:06;3.17;;;2.97;;
13832;SDS011;6987;19.472;-99.276;2023-03-17T06:54:35;6.32;;;2.63;;
13832;SDS011;6987;19.472;-99.276;2023-03-17T06:57:04;2.30;;;2.20;;
13832;SDS011;6987;19.472;-99.276;2023-03-17T06:59:34;3.72;;;2.83;;
13832;SDS011;6987;19.472;-99.276;2023-03-17T07:02:03;2.85;;;2.58;;
13832;SDS011;6987;19.472;-99.276;2023-03-17T07:04:32;3.67;;;2.72;;
13832;SDS011;6987;19.472;-99.276;2023-03-17T07:07:02;3.05;;;2.78;;
13832;SDS011;6987;19.472;-99.276;2023-03-17T07:09:33;3.17;;;2.90;;
13832;SDS011;6987;19.472;-99.276;2023-03-17T07:12:03;2.28;;;2.15;;
13832;SDS011;6987;19.472;-99.276;2023-03-17T07:14:33;2.53;;;2.40;;
13832;SDS011;6987;19.472;-99.276;2023-03-17T07:17:02;3.20;;;2.70;;
13832;SDS011;6987;19.472;-99.276;2023-03-17T07:19:31;3.15;;;2.45;;
13832;SDS011;6987;19.472;-99.276;2023-03-17T07:22:01;2.83;;;2.72;;
13832;SDS011;6987;19.472;-99.276;2023-03-17T07:24:30;2.45;;;2.35;;
13832;SDS011;6987;19.472;-99.276;2023-03-17T07:27:01;8.20;;;2.90;;
13832;SDS011;6987;19.472;-99.276;2023-03-17T07:29:30;2.42;;;2.33;;
13832;SDS011;6987;19.472;-99.276;2023-03-17T07:31:59;2.25;;;2.15;;
13832;SDS011;6987;19.472;-99.276;2023-03-17T07:34:28;2.78;;;2.30;;
13832;SDS011;6987;19.472;-99.276;2023-03-17T07:36:57;3.72;;;2.50;;
13832;SDS011;6987;19.472;-99.276;2023-03-17T07:39:26;2.47;;;2.33;;
13832;SDS011;6987;19.472;-99.276;2023-03-17T07:41:56;2.58;;;2.38;;
13832;SDS011;6987;19.472;-99.276;2023-03-17T07:44:27;2.60;;;2.50;;
13832;SDS011;6987;19.472;-99.276;2023-03-17T07:46:57;5.05;;;3.28;;
13832;SDS011;6987;19.472;-99.276;2023-03-17T07:49:26;3.05;;;2.38;;
13832;SDS011;6987;19.472;-99.276;2023-03-17T07:51:56;4.78;;;2.58;;
13832;SDS011;6987;19.472;-99.276;2023-03-17T07:54:25;2.47;;;2.38;;
13832;SDS011;6987;19.472;-99.276;2023-03-17T07:56:53;2.20;;;2.10;;
13832;SDS011;6987;19.472;-99.276;2023-03-17T07:59:22;2.53;;;2.42;;
13832;SDS011;6987;19.472;-99.276;2023-03-17T08:01:53;2.70;;;2.60;;
13832;SDS011;6987;19.472;-99.276;2023-03-17T08:04:24;2.58;;;2.47;;
13832;SDS011;6987;19.472;-99.276;2023-03-17T08:06:53;2.45;;;2.35;;
13832;SDS011;6987;19.472;-99.276;2023-03-17T08:09:23;2.75;;;2.55;;
13832;SDS011;6987;19.472;-99.276;2023-03-17T08:11:52;2.50;;;2.33;;
13832;SDS011;6987;19.472;-99.276;2023-03-17T08:14:21;2.55;;;2.45;;
13832;SDS011;6987;19.472;-99.276;2023-03-17T08:16:50;2.75;;;2.65;;
13832;SDS011;6987;19.472;-99.276;2023-03-17T08:19:21;3.30;;;2.58;;
13832;SDS011;6987;19.472;-99.276;2023-03-17T08:21:50;2.85;;;2.65;;
13832;SDS011;6987;19.472;-99.276;2023-03-17T08:24:19;2.70;;;2.60;;
13832;SDS011;6987;19.472;-99.276;2023-03-17T08:26:48;3.38;;;3.13;;
13832;SDS011;6987;19.472;-99.276;2023-03-17T08:29:17;3.58;;;2.88;;
13832;SDS011;6987;19.472;-99.276;2023-03-17T08:31:46;2.53;;;2.42;;
13832;SDS011;6987;19.472;-99.276;2023-03-17T08:34:15;2.53;;;2.42;;
13832;SDS011;6987;19.472;-99.276;2023-03-17T08:36:46;2.65;;;2.55;;
13832;SDS011;6987;19.472;-99.276;2023-03-17T08:39:15;2.58;;;2.47;;
13832;SDS011;6987;19.472;-99.276;2023-03-17T08:41:44;2.72;;;2.53;;
13832;SDS011;6987;19.472;-99.276;2023-03-17T08:44:13;2.72;;;2.53;;
13832;SDS011;6987;19.472;-99.276;2023-03-17T08:46:42;2.90;;;2.80;;
13832;SDS011;6987;19.472;-99.276;2023-03-17T08:49:11;3.03;;;2.75;;
13832;SDS011;6987;19.472;-99.276;2023-03-17T08:51:41;3.17;;;2.88;;
13832;SDS011;6987;19.472;-99.276;2023-03-17T08:54:12;3.08;;;2.88;;
13832;SDS011;6987;19.472;-99.276;2023-03-17T08:56:42;2.97;;;2.78;;
13832;SDS011;6987;19.472;-99.276;2023-03-17T08:59:11;3.30;;;2.53;;
13832;SDS011;6987;19.472;-99.276;2023-03-17T09:01:40;5.57;;;2.47;;
13832;SDS011;6987;19.472;-99.276;2023-03-17T09:04:10;2.80;;;2.60;;
13832;SDS011;6987;19.472;-99.276;2023-03-17T09:06:40;3.20;;;3.00;;
13832;SDS011;6987;19.472;-99.276;2023-03-17T09:09:09;3.53;;;3.22;;
13832;SDS011;6987;19.472;-99.276;2023-03-17T09:11:41;2.75;;;2.55;;
13832;SDS011;6987;19.472;-99.276;2023-03-17T09:14:10;2.92;;;2.78;;
13832;SDS011;6987;19.472;-99.276;2023-03-17T09:16:40;3.58;;;2.67;;
13832;SDS011;6987;19.472;-99.276;2023-03-17T09:19:09;3.42;;;3.13;;
13832;SDS011;6987;19.472;-99.276;2023-03-17T09:21:38;2.80;;;2.63;;
13832;SDS011;6987;19.472;-99.276;2023-03-17T09:24:07;3.30;;;3.00;;
13832;SDS011;6987;19.472;-99.276;2023-03-17T09:26:37;3.20;;;3.00;;
13832;SDS011;6987;19.472;-99.276;2023-03-17T09:29:08;3.30;;;3.10;;
13832;SDS011;6987;19.472;-99.276;2023-03-17T09:31:37;3.90;;;3.60;;
13832;SDS011;6987;19.472;-99.276;2023-03-17T09:34:08;4.00;;;3.70;;
13832;SDS011;6987;19.472;-99.276;2023-03-17T09:36:37;4.50;;;3.92;;
13832;SDS011;6987;19.472;-99.276;2023-03-17T09:39:07;5.88;;;3.38;;
13832;SDS011;6987;19.472;-99.276;2023-03-17T09:41:51;3.42;;;3.20;;
13832;SDS011;6987;19.472;-99.276;2023-03-17T09:47:18;3.33;;;3.13;;
13832;SDS011;6987;19.472;-99.276;2023-03-17T09:49:51;3.75;;;3.53;;
13832;SDS011;6987;19.472;-99.276;2023-03-17T09:52:24;3.50;;;3.30;;
13832;SDS011;6987;19.472;-99.276;2023-03-17T09:54:55;4.20;;;3.80;;
13832;SDS011;6987;19.472;-99.276;2023-03-17T09:57:25;3.35;;;3.05;;
13832;SDS011;6987;19.472;-99.276;2023-03-17T09:59:56;3.97;;;3.67;;
13832;SDS011;6987;19.472;-99.276;2023-03-17T10:02:33;3.45;;;3.15;;
13832;SDS011;6987;19.472;-99.276;2023-03-17T10:05:09;4.10;;;3.65;;
13832;SDS011;6987;19.472;-99.276;2023-03-17T10:07:41;6.30;;;4.07;;
13832;SDS011;6987;19.472;-99.276;2023-03-17T10:10:13;3.97;;;3.67;;
13832;SDS011;6987;19.472;-99.276;2023-03-17T10:12:44;4.30;;;3.90;;
13832;SDS011;6987;19.472;-99.276;2023-03-17T10:15:15;4.30;;;3.95;;
13832;SDS011;6987;19.472;-99.276;2023-03-17T10:17:48;5.97;;;4.18;;
13832;SDS011;6987;19.472;-99.276;2023-03-17T10:20:20;4.72;;;4.38;;
13832;SDS011;6987;19.472;-99.276;2023-03-17T10:22:52;9.88;;;4.28;;
13832;SDS011;6987;19.472;-99.276;2023-03-17T10:25:24;5.00;;;4.03;;
13832;SDS011;6987;19.472;-99.276;2023-03-17T10:27:54;4.55;;;4.13;;
13832;SDS011;6987;19.472;-99.276;2023-03-17T10:30:25;5.72;;;4.20;;
13832;SDS011;6987;19.472;-99.276;2023-03-17T10:32:56;4.32;;;3.92;;
13832;SDS011;6987;19.472;-99.276;2023-03-17T10:35:28;5.40;;;4.65;;
13832;SDS011;6987;19.472;-99.276;2023-03-17T10:38:00;7.20;;;4.32;;
13832;SDS011;6987;19.472;-99.276;2023-03-17T10:40:30;4.60;;;4.20;;
13832;SDS011;6987;19.472;-99.276;2023-03-17T10:43:00;8.13;;;4.40;;
13832;SDS011;6987;19.472;-99.276;2023-03-17T10:45:33;10.45;;;5.13;;
13832;SDS011;6987;19.472;-99.276;2023-03-17T10:48:06;7.38;;;5.18;;
13832;SDS011;6987;19.472;-99.276;2023-03-17T10:50:35;6.35;;;4.85;;
13832;SDS011;6987;19.472;-99.276;2023-03-17T10:53:06;5.28;;;4.82;;
13832;SDS011;6987;19.472;-99.276;2023-03-17T10:55:39;6.68;;;5.07;;
13832;SDS011;6987;19.472;-99.276;2023-03-17T10:58:12;5.32;;;4.65;;
13832;SDS011;6987;19.472;-99.276;2023-03-17T11:00:53;5.72;;;4.68;;
13832;SDS011;6987;19.472;-99.276;2023-03-17T11:03:24;7.07;;;5.50;;
13832;SDS011;6987;19.472;-99.276;2023-03-17T11:05:54;5.88;;;5.03;;
13832;SDS011;6987;19.472;-99.276;2023-03-17T11:08:24;5.28;;;4.53;;
13832;SDS011;6987;19.472;-99.276;2023-03-17T11:10:58;5.15;;;4.10;;
13832;SDS011;6987;19.472;-99.276;2023-03-17T11:13:30;4.82;;;4.43;;
13832;SDS011;6987;19.472;-99.276;2023-03-17T11:16:03;7.38;;;5.10;;
13832;SDS011;6987;19.472;-99.276;2023-03-17T11:18:37;8.50;;;5.10;;
13832;SDS011;6987;19.472;-99.276;2023-03-17T11:21:08;7.15;;;5.65;;
13832;SDS011;6987;19.472;-99.276;2023-03-17T11:23:42;8.23;;;5.18;;
13832;SDS011;6987;19.472;-99.276;2023-03-17T11:26:18;9.75;;;4.95;;
13832;SDS011;6987;19.472;-99.276;2023-03-17T11:29:00;5.65;;;5.10;;
13832;SDS011;6987;19.472;-99.276;2023-03-17T11:31:32;5.28;;;4.80;;
13832;SDS011;6987;19.472;-99.276;2023-03-17T11:34:05;7.28;;;5.47;;
13832;SDS011;6987;19.472;-99.276;2023-03-17T11:36:39;7.50;;;5.13;;
13832;SDS011;6987;19.472;-99.276;2023-03-17T11:39:11;6.70;;;5.65;;
13832;SDS011;6987;19.472;-99.276;2023-03-17T11:41:42;8.35;;;5.13;;
13832;SDS011;6987;19.472;-99.276;2023-03-17T11:44:28;6.30;;;5.07;;
13832;SDS011;6987;19.472;-99.276;2023-03-17T11:47:02;7.15;;;5.43;;
13832;SDS011;6987;19.472;-99.276;2023-03-17T11:49:35;5.45;;;4.95;;
13832;SDS011;6987;19.472;-99.276;2023-03-17T11:52:08;7.30;;;5.25;;
13832;SDS011;6987;19.472;-99.276;2023-03-17T11:54:41;7.18;;;5.57;;
13832;SDS011;6987;19.472;-99.276;2023-03-17T11:57:13;6.60;;;5.78;;
13832;SDS011;6987;19.472;-99.276;2023-03-17T11:59:44;13.15;;;6.05;;
13832;SDS011;6987;19.472;-99.276;2023-03-17T12:02:19;8.32;;;6.10;;
13832;SDS011;6987;19.472;-99.276;2023-03-17T12:04:52;6.55;;;4.97;;
13832;SDS011;6987;19.472;-99.276;2023-03-17T12:07:23;8.20;;;5.40;;
13832;SDS011;6987;19.472;-99.276;2023-03-17T12:10:05;7.93;;;5.25;;
13832;SDS011;6987;19.472;-99.276;2023-03-17T12:12:37;9.80;;;5.43;;
13832;SDS011;6987;19.472;-99.276;2023-03-17T12:15:10;7.72;;;6.18;;
13832;SDS011;6987;19.472;-99.276;2023-03-17T12:17:43;7.45;;;5.45;;
13832;SDS011;6987;19.472;-99.276;2023-03-17T12:20:18;5.45;;;4.95;;
13832;SDS011;6987;19.472;-99.276;2023-03-17T12:22:52;9.18;;;6.18;;
13832;SDS011;6987;19.472;-99.276;2023-03-17T12:25:22;7.68;;;5.60;;
13832;SDS011;6987;19.472;-99.276;2023-03-17T12:27:53;6.35;;;5.75;;
13832;SDS011;6987;19.472;-99.276;2023-03-17T12:30:28;9.30;;;5.75;;
13832;SDS011;6987;19.472;-99.276;2023-03-17T12:33:03;7.93;;;6.10;;
13832;SDS011;6987;19.472;-99.276;2023-03-17T12:35:36;13.32;;;6.40;;
13832;SDS011;6987;19.472;-99.276;2023-03-17T12:38:06;10.75;;;6.07;;
13832;SDS011;6987;19.472;-99.276;2023-03-17T12:40:40;9.30;;;6.18;;
13832;SDS011;6987;19.472;-99.276;2023-03-17T12:43:17;6.65;;;6.05;;
13832;SDS011;6987;19.472;-99.276;2023-03-17T12:46:03;11.90;;;6.40;;
13832;SDS011;6987;19.472;-99.276;2023-03-17T12:48:42;8.63;;;5.47;;
13832;SDS011;6987;19.472;-99.276;2023-03-17T12:51:20;7.05;;;6.38;;
13832;SDS011;6987;19.472;-99.276;2023-03-17T12:53:52;12.93;;;5.95;;
13832;SDS011;6987;19.472;-99.276;2023-03-17T12:56:21;8.82;;;6.55;;
13832;SDS011;6987;19.472;-99.276;2023-03-17T12:58:52;11.60;;;6.50;;
13832;SDS011;6987;19.472;-99.276;2023-03-17T13:01:24;7.18;;;6.28;;
13832;SDS011;6987;19.472;-99.276;2023-03-17T13:04:00;6.60;;;6.00;;
13832;SDS011;6987;19.472;-99.276;2023-03-17T13:06:32;8.73;;;6.63;;
13832;SDS011;6987;19.472;-99.276;2023-03-17T13:11:55;13.05;;;6.35;;
13832;SDS011;6987;19.472;-99.276;2023-03-17T13:14:25;11.13;;;6.47;;
13832;SDS011;6987;19.472;-99.276;2023-03-17T13:17:02;11.13;;;6.75;;
13832;SDS011;6987;19.472;-99.276;2023-03-17T13:19:31;14.13;;;6.20;;
13832;SDS011;6987;19.472;-99.276;2023-03-17T13:24:49;10.55;;;6.63;;
13832;SDS011;6987;19.472;-99.276;2023-03-17T13:32:54;7.47;;;6.47;;
13832;SDS011;6987;19.472;-99.276;2023-03-17T13:35:36;6.63;;;6.10;;
13832;SDS011;6987;19.472;-99.276;2023-03-17T13:38:21;10.90;;;7.13;;
13832;SDS011;6987;19.472;-99.276;2023-03-17T13:40:59;11.10;;;7.05;;
13832;SDS011;6987;19.472;-99.276;2023-03-17T13:43:39;11.05;;;6.43;;
13832;SDS011;6987;19.472;-99.276;2023-03-17T13:46:25;12.98;;;7.28;;
13832;SDS011;6987;19.472;-99.276;2023-03-17T13:48:55;8.02;;;6.45;;
13832;SDS011;6987;19.472;-99.276;2023-03-17T13:51:24;9.60;;;7.03;;
13832;SDS011;6987;19.472;-99.276;2023-03-17T13:53:56;11.20;;;6.90;;
13832;SDS011;6987;19.472;-99.276;2023-03-17T13:56:27;7.45;;;6.70;;
13832;SDS011;6987;19.472;-99.276;2023-03-17T13:59:13;6.97;;;6.28;;
13832;SDS011;6987;19.472;-99.276;2023-03-17T14:01:46;10.18;;;7.78;;
13832;SDS011;6987;19.472;-99.276;2023-03-17T14:04:19;11.20;;;6.95;;
13832;SDS011;6987;19.472;-99.276;2023-03-17T14:06:50;10.77;;;7.32;;
13832;SDS011;6987;19.472;-99.276;2023-03-17T14:09:31;11.25;;;7.30;;
13832;SDS011;6987;19.472;-99.276;2023-03-17T14:12:04;8.85;;;7.95;;
13832;SDS011;6987;19.472;-99.276;2023-03-17T14:14:37;8.07;;;7.43;;
13832;SDS011;6987;19.472;-99.276;2023-03-17T14:17:12;10.00;;;8.77;;
13832;SDS011;6987;19.472;-99.276;2023-03-17T14:22:26;20.55;;;8.48;;
13832;SDS011;6987;19.472;-99.276;2023-03-17T14:24:58;10.88;;;8.38;;
13832;SDS011;6987;19.472;-99.276;2023-03-17T14:27:30;13.68;;;9.40;;
13832;SDS011;6987;19.472;-99.276;2023-03-17T14:30:07;10.25;;;9.23;;
13832;SDS011;6987;19.472;-99.276;2023-03-17T14:32:36;8.25;;;7.43;;
13832;SDS011;6987;19.472;-99.276;2023-03-17T14:35:11;11.25;;;8.85;;
13832;SDS011;6987;19.472;-99.276;2023-03-17T14:37:40;8.93;;;7.47;;
13832;SDS011;6987;19.472;-99.276;2023-03-17T14:40:20;9.05;;;8.15;;
13832;SDS011;6987;19.472;-99.276;2023-03-17T14:42:50;14.10;;;9.93;;
13832;SDS011;6987;19.472;-99.276;2023-03-17T14:45:21;11.32;;;8.98;;
13832;SDS011;6987;19.472;-99.276;2023-03-17T14:47:50;10.85;;;9.77;;
13832;SDS011;6987;19.472;-99.276;2023-03-17T14:50:21;11.32;;;9.55;;
13832;SDS011;6987;19.472;-99.276;2023-03-17T14:52:50;11.88;;;10.25;;
13832;SDS011;6987;19.472;-99.276;2023-03-17T14:55:20;9.88;;;8.68;;
13832;SDS011;6987;19.472;-99.276;2023-03-17T14:57:51;9.45;;;8.48;;
13832;SDS011;6987;19.472;-99.276;2023-03-17T15:00:33;10.90;;;9.80;;
13832;SDS011;6987;19.472;-99.276;2023-03-17T15:03:12;12.93;;;9.57;;
13832;SDS011;6987;19.472;-99.276;2023-03-17T15:05:44;13.75;;;8.93;;
13832;SDS011;6987;19.472;-99.276;2023-03-17T15:08:29;9.13;;;8.05;;
13832;SDS011;6987;19.472;-99.276;2023-03-17T15:10:58;10.68;;;9.55;;
13832;SDS011;6987;19.472;-99.276;2023-03-17T15:13:31;12.70;;;9.52;;
13832;SDS011;6987;19.472;-99.276;2023-03-17T15:16:04;13.27;;;10.07;;